Time;durP1;ratioP1;P1;durP2;ratioP2;P2;SDS_P1;SDS_P2;PMS_P1;PMS_P2;Temp;Humidity;BMP_temperature;BMP_pressure;BME280_temperature;BME280_humidity;BME280_pressure;Samples;Min_cycle;Max_cycle;Signal;HPM_P1;HPM_P2
2023/12/04 00:00:35;;;;;;;;;;;;;;;-5.94;100.00;96531.97;5064005;28;19940;-75
2023/12/04 00:03:01;;;;;;;;;;;;;;;-5.96;100.00;96527.00;5046173;28;20006;-75
2023/12/04 00:05:26;;;;;;;;;;;;;;;-5.97;100.00;96510.03;5063735;28;19943;-76
2023/12/04 00:07:52;;;;;;;;;;;;;;;-5.98;100.00;96513.53;5063997;28;19951;-76
2023/12/04 00:10:18;;;;;;;;;;;;;;;-5.99;100.00;96504.22;5029112;28;19966;-76
2023/12/04 00:12:44;;;;;;;;;;;;;;;-6.01;100.00;96503.53;5063442;28;19934;-74
2023/12/04 00:15:10;;;;;;;;;;;;;;;-6.03;100.00;96497.72;5063717;28;19936;-76
2023/12/04 00:17:39;;;;;;;;;;;;;;;-6.07;100.00;96491.22;5062443;28;19943;-75
2023/12/04 00:20:09;;;;;;;;;;;;;;;-6.07;100.00;96492.97;5045548;28;19944;-76
2023/12/04 00:22:36;;;;;;;;;;;;;;;-6.10;100.00;96486.34;5063003;28;19949;-75
2023/12/04 00:25:03;;;;;;;;;;;;;;;-6.09;100.00;96487.16;5045803;28;19943;-76
2023/12/04 00:27:29;;;;;;;;;;;;;;;-6.07;100.00;96495.53;5045418;28;19966;-76
2023/12/04 00:29:55;;;;;;;;;;;;;;;-6.07;100.00;96509.09;5045796;28;19970;-76
2023/12/04 00:32:21;;;;;;;;;;;;;;;-6.06;100.00;96508.19;5066655;28;19940;-75
2023/12/04 00:34:47;;;;;;;;;;;;;;;-6.04;100.00;96508.88;5049532;28;19974;-76
2023/12/04 00:37:13;;;;;;;;;;;;;;;-6.04;100.00;96502.97;5066976;28;19936;-75
2023/12/04 00:39:39;;;;;;;;;;;;;;;-6.06;100.00;96492.88;5049296;28;19978;-75
2023/12/04 00:42:05;;;;;;;;;;;;;;;-6.06;100.00;96490.31;5049174;28;19948;-75
2023/12/04 00:44:31;;;;;;;;;;;;;;;-6.07;100.00;96491.22;5067034;28;20132;-75
2023/12/04 00:46:57;;;;;;;;;;;;;;;-6.09;100.00;96482.88;5048498;28;19955;-75
2023/12/04 00:49:23;;;;;;;;;;;;;;;-6.11;100.00;96466.84;5049172;28;19957;-75
2023/12/04 00:51:49;;;;;;;;;;;;;;;-6.18;100.00;96463.13;5066359;28;20003;-76
2023/12/04 00:54:15;;;;;;;;;;;;;;;-6.23;100.00;96465.22;5066651;28;19937;-75
2023/12/04 00:56:41;;;;;;;;;;;;;;;-6.27;100.00;96466.38;5066822;28;19939;-75
2023/12/04 00:59:08;;;;;;;;;;;;;;;-6.32;100.00;96456.47;5048939;28;19944;-76
2023/12/04 01:01:35;;;;;;;;;;;;;;;-6.36;100.00;96461.03;5048973;28;20242;-75
2023/12/04 01:04:01;;;;;;;;;;;;;;;-6.38;100.00;96459.50;5048747;28;19943;-75
2023/12/04 01:06:27;;;;;;;;;;;;;;;-6.39;100.00;96466.34;5066485;28;19938;-76
2023/12/04 01:08:54;;;;;;;;;;;;;;;-6.41;100.00;96470.72;5048671;28;20159;-75
2023/12/04 01:11:20;;;;;;;;;;;;;;;-6.43;100.00;96472.59;5048598;28;19940;-75
2023/12/04 01:13:46;;;;;;;;;;;;;;;-6.43;100.00;96466.69;5065878;28;19946;-75
2023/12/04 01:16:11;;;;;;;;;;;;;;;-6.46;100.00;96454.97;5032100;28;19981;-75
2023/12/04 01:18:37;;;;;;;;;;;;;;;-6.47;100.00;96453.31;5032114;28;20204;-75
2023/12/04 01:21:03;;;;;;;;;;;;;;;-6.46;100.00;96454.16;5048514;28;19936;-75
2023/12/04 01:23:29;;;;;;;;;;;;;;;-6.47;100.00;96460.16;5049124;28;19939;-75
2023/12/04 01:25:55;;;;;;;;;;;;;;;-6.48;100.00;96454.25;5066031;28;19997;-75
2023/12/04 01:28:21;;;;;;;;;;;;;;;-6.46;100.00;96449.06;5065739;28;20277;-75
2023/12/04 01:30:47;;;;;;;;;;;;;;;-6.45;100.00;96448.13;5066615;28;20014;-75
2023/12/04 01:33:12;;;;;;;;;;;;;;;-6.43;100.00;96448.81;5048103;28;19983;-75
2023/12/04 01:35:38;;;;;;;;;;;;;;;-6.41;100.00;96452.06;5047813;28;19944;-75
2023/12/04 01:38:04;;;;;;;;;;;;;;;-6.38;100.00;96446.75;5031176;28;19943;-75
2023/12/04 01:40:30;;;;;;;;;;;;;;;-6.37;100.00;96446.63;5064419;28;19947;-75
2023/12/04 01:42:56;;;;;;;;;;;;;;;-6.35;100.00;96460.09;5064389;28;19983;-75
2023/12/04 01:45:22;;;;;;;;;;;;;;;-6.35;100.00;96452.44;5047434;28;20243;-75
2023/12/04 01:47:48;;;;;;;;;;;;;;;-6.33;100.00;96455.69;5065892;28;19941;-76
2023/12/04 01:50:14;;;;;;;;;;;;;;;-6.32;100.00;96456.47;5063967;28;19971;-75
2023/12/04 01:52:40;;;;;;;;;;;;;;;-6.30;100.00;96453.81;5065210;28;20230;-75
2023/12/04 01:55:07;;;;;;;;;;;;;;;-6.30;100.00;96451.28;5065424;28;19972;-75
2023/12/04 01:57:32;;;;;;;;;;;;;;;-6.30;100.00;96444.44;5065641;28;19934;-75
2023/12/04 01:59:59;;;;;;;;;;;;;;;-6.31;100.00;96426.69;5065066;28;19932;-75
2023/12/04 02:02:25;;;;;;;;;;;;;;;-6.33;100.00;96419.16;5047175;28;20143;-75
2023/12/04 02:04:53;;;;;;;;;;;;;;;-6.34;100.00;96420.06;5047069;28;19942;-75
2023/12/04 02:07:19;;;;;;;;;;;;;;;-6.36;100.00;96425.28;5047039;28;20138;-75
2023/12/04 02:09:46;;;;;;;;;;;;;;;-6.35;100.00;96426.09;5064806;28;19954;-75
2023/12/04 02:12:11;;;;;;;;;;;;;;;-6.36;100.00;96429.59;5064845;28;19942;-75
2023/12/04 02:14:37;;;;;;;;;;;;;;;-6.37;100.00;96428.75;5064205;28;19945;-75
2023/12/04 02:17:05;;;;;;;;;;;;;;;-6.37;100.00;96426.22;5063770;28;19947;-75
2023/12/04 02:19:31;;;;;;;;;;;;;;;-6.39;100.00;96427.25;5064688;28;19941;-75
2023/12/04 02:21:57;;;;;;;;;;;;;;;-6.40;100.00;96421.34;5065191;28;20240;-75
2023/12/04 02:24:23;;;;;;;;;;;;;;;-6.41;100.00;96413.81;5046854;28;19943;-74
2023/12/04 02:26:52;;;;;;;;;;;;;;;-6.44;100.00;96417.41;5064390;28;19942;-75
2023/12/04 02:29:23;;;;;;;;;;;;;;;-6.46;100.00;96411.59;5063584;28;20094;-74
2023/12/04 02:31:50;;;;;;;;;;;;;;;-6.45;100.00;96408.09;5064098;28;19951;-75
2023/12/04 02:34:16;;;;;;;;;;;;;;;-6.47;100.00;96398.94;5064461;28;19939;-75
2023/12/04 02:36:43;;;;;;;;;;;;;;;-6.48;100.00;96402.44;5064882;28;20214;-75
2023/12/04 02:39:09;;;;;;;;;;;;;;;-6.47;100.00;96399.75;5064295;28;19945;-75
2023/12/04 02:41:35;;;;;;;;;;;;;;;-6.46;100.00;96400.59;5064367;28;19941;-75
2023/12/04 02:44:02;;;;;;;;;;;;;;;-6.42;100.00;96402.78;5064626;28;20237;-75
2023/12/04 02:46:28;;;;;;;;;;;;;;;-6.40;100.00;96403.50;5064243;28;19947;-75
2023/12/04 02:48:53;;;;;;;;;;;;;;;-6.38;100.00;96393.97;5064214;28;20202;-75
2023/12/04 02:51:19;;;;;;;;;;;;;;;-6.36;100.00;96392.13;5064047;28;19955;-75
2023/12/04 02:53:45;;;;;;;;;;;;;;;-6.35;100.00;96380.19;5046259;28;19936;-74
2023/12/04 02:56:11;;;;;;;;;;;;;;;-6.34;100.00;96369.88;5047099;28;19943;-75
2023/12/04 02:58:37;;;;;;;;;;;;;;;-6.31;100.00;96373.13;5063977;28;20140;-74
2023/12/04 03:01:03;;;;;;;;;;;;;;;-6.33;100.00;96370.66;5064632;28;19980;-75
2023/12/04 03:03:29;;;;;;;;;;;;;;;-6.34;100.00;96377.53;5063912;28;19936;-75
2023/12/04 03:05:54;;;;;;;;;;;;;;;-6.32;100.00;96377.38;5063832;28;19976;-75
2023/12/04 03:08:20;;;;;;;;;;;;;;;-6.32;100.00;96364.63;5063862;28;20133;-75
2023/12/04 03:10:46;;;;;;;;;;;;;;;-6.34;100.00;96358.81;5045877;28;19959;-75
2023/12/04 03:13:12;;;;;;;;;;;;;;;-6.36;100.00;96355.59;5046528;28;19964;-75
2023/12/04 03:15:38;;;;;;;;;;;;;;;-6.41;100.00;96340.63;5046557;28;20238;-75
2023/12/04 03:18:04;;;;;;;;;;;;;;;-6.43;100.00;96331.47;5063666;28;20217;-75
2023/12/04 03:20:31;;;;;;;;;;;;;;;-6.45;100.00;96318.81;5063678;28;19942;-75
2023/12/04 03:22:57;;;;;;;;;;;;;;;-6.47;100.00;96312.22;5046456;28;19952;-74
2023/12/04 03:25:23;;;;;;;;;;;;;;;-6.46;100.00;96312.09;5045845;28;19947;-75
2023/12/04 03:27:49;;;;;;;;;;;;;;;-6.47;100.00;96304.56;5029110;28;19970;-74
2023/12/04 03:30:15;;;;;;;;;;;;;;;-6.46;100.00;96312.09;5063575;28;19960;-75
2023/12/04 03:32:41;;;;;;;;;;;;;;;-6.43;100.00;96313.59;5063467;28;19969;-75
2023/12/04 03:35:07;;;;;;;;;;;;;;;-6.39;100.00;96322.66;5045581;28;19937;-75
2023/12/04 03:37:33;;;;;;;;;;;;;;;-6.34;100.00;96330.75;5045989;28;19941;-75
2023/12/04 03:39:59;;;;;;;;;;;;;;;-6.31;100.00;96335.63;5064179;28;19958;-75
2023/12/04 03:42:25;;;;;;;;;;;;;;;-6.27;100.00;96333.69;5063879;28;19941;-74
2023/12/04 03:44:50;;;;;;;;;;;;;;;-6.23;100.00;96327.41;5063929;28;20280;-75
2023/12/04 03:47:16;;;;;;;;;;;;;;;-6.20;100.00;96322.06;5045526;28;20220;-75
2023/12/04 03:49:42;;;;;;;;;;;;;;;-6.18;100.00;96321.00;5063365;28;19940;-74
2023/12/04 03:52:08;;;;;;;;;;;;;;;-6.16;100.00;96305.59;5045973;28;19947;-75
2023/12/04 03:54:34;;;;;;;;;;;;;;;-6.19;100.00;96304.09;5063853;28;19977;-75
2023/12/04 03:57:00;;;;;;;;;;;;;;;-6.20;100.00;96306.75;5045647;28;19936;-76
2023/12/04 03:59:26;;;;;;;;;;;;;;;-6.21;100.00;96305.13;5062825;28;19948;-75
2023/12/04 04:01:51;;;;;;;;;;;;;;;-6.23;100.00;96310.34;5063961;28;20257;-74
2023/12/04 04:04:17;;;;;;;;;;;;;;;-6.24;100.00;96310.47;5063633;28;20134;-75
2023/12/04 04:06:43;;;;;;;;;;;;;;;-6.24;100.00;96321.47;5048388;28;19941;-74
2023/12/04 04:09:09;;;;;;;;;;;;;;;-6.26;100.00;96315.69;5049471;28;19956;-75
2023/12/04 04:11:35;;;;;;;;;;;;;;;-6.26;100.00;96310.56;5067655;28;20102;-75
2023/12/04 04:14:01;;;;;;;;;;;;;;;-6.26;100.00;96317.44;5066862;28;19945;-75
2023/12/04 04:16:27;;;;;;;;;;;;;;;-6.27;100.00;96311.50;5066974;28;19977;-75
2023/12/04 04:18:52;;;;;;;;;;;;;;;-6.28;100.00;96317.53;5065924;28;19944;-75
2023/12/04 04:21:18;;;;;;;;;;;;;;;-6.28;100.00;96309.06;5066825;28;19938;-75
2023/12/04 04:23:44;;;;;;;;;;;;;;;-6.33;100.00;96305.13;5067660;28;19944;-75
2023/12/04 04:26:10;;;;;;;;;;;;;;;-6.37;100.00;96308.84;5049403;28;20002;-75
2023/12/04 04:28:36;;;;;;;;;;;;;;;-6.37;100.00;96308.03;5066549;28;20052;-75
2023/12/04 04:31:02;;;;;;;;;;;;;;;-6.36;100.00;96313.03;5049462;28;19962;-75
2023/12/04 04:33:28;;;;;;;;;;;;;;;-6.34;100.00;96306.06;5049572;28;19939;-74
2023/12/04 04:35:53;;;;;;;;;;;;;;;-6.32;100.00;96303.38;5067243;28;19938;-74
2023/12/04 04:38:19;;;;;;;;;;;;;;;-6.30;100.00;96310.94;5066894;28;19941;-75
2023/12/04 04:40:45;;;;;;;;;;;;;;;-6.31;100.00;96305.03;5067074;28;19935;-75
2023/12/04 04:43:11;;;;;;;;;;;;;;;-6.32;100.00;96300.84;5049488;28;20222;-75
2023/12/04 04:45:37;;;;;;;;;;;;;;;-6.30;100.00;96293.88;5049493;28;19944;-75
2023/12/04 04:48:03;;;;;;;;;;;;;;;-6.27;100.00;96280.91;5066642;28;20067;-75
2023/12/04 04:50:29;;;;;;;;;;;;;;;-6.26;100.00;96279.94;5048904;28;20044;-75
2023/12/04 04:52:55;;;;;;;;;;;;;;;-6.24;100.00;96270.44;5066866;28;19941;-75
2023/12/04 04:55:21;;;;;;;;;;;;;;;-6.21;100.00;96274.50;5065157;28;19937;-75
2023/12/04 04:57:46;;;;;;;;;;;;;;;-6.20;100.00;96264.16;5066812;28;19942;-75
2023/12/04 05:00:13;;;;;;;;;;;;;;;-6.17;100.00;96263.94;5048584;28;19996;-75
2023/12/04 05:02:38;;;;;;;;;;;;;;;-6.14;100.00;96268.81;5049038;28;19965;-75
2023/12/04 05:05:06;;;;;;;;;;;;;;;-6.12;100.00;96261.84;5048330;28;19945;-75
2023/12/04 05:07:32;;;;;;;;;;;;;;;-6.08;100.00;96259.06;5066690;28;19943;-74
2023/12/04 05:09:57;;;;;;;;;;;;;;;-6.04;100.00;96257.91;5049020;28;20010;-75
2023/12/04 05:12:23;;;;;;;;;;;;;;;-6.01;100.00;96255.09;5032303;28;20226;-75
2023/12/04 05:14:49;;;;;;;;;;;;;;;-6.01;100.00;96248.22;5066816;28;19947;-74
2023/12/04 05:17:15;;;;;;;;;;;;;;;-5.99;100.00;96251.47;5066569;28;19953;-75
2023/12/04 05:19:41;;;;;;;;;;;;;;;-5.98;100.00;96234.44;5031607;28;19952;-74
2023/12/04 05:22:08;;;;;;;;;;;;;;;-5.99;100.00;96238.72;5047983;28;19954;-75
2023/12/04 05:24:35;;;;;;;;;;;;;;;-5.98;100.00;96235.25;5048686;28;19938;-74
2023/12/04 05:27:02;;;;;;;;;;;;;;;-5.98;100.00;96230.13;5064554;28;19965;-76
2023/12/04 05:29:28;;;;;;;;;;;;;;;-5.98;100.00;96224.22;5066587;28;19939;-75
2023/12/04 05:31:54;;;;;;;;;;;;;;;-5.99;100.00;96228.50;5048491;28;19970;-74
2023/12/04 05:34:19;;;;;;;;;;;;;;;-5.99;100.00;96231.06;5065859;28;19972;-75
2023/12/04 05:36:45;;;;;;;;;;;;;;;-6.00;100.00;96231.19;5047928;28;19964;-74
2023/12/04 05:39:11;;;;;;;;;;;;;;;-6.07;100.00;96225.75;5066238;28;19964;-75
2023/12/04 05:41:37;;;;;;;;;;;;;;;-6.12;100.00;96228.66;5066023;28;19938;-75
2023/12/04 05:44:03;;;;;;;;;;;;;;;-6.13;100.00;96229.59;5047325;28;19962;-75
2023/12/04 05:46:29;;;;;;;;;;;;;;;-6.15;100.00;96221.25;5047543;28;19950;-75
2023/12/04 05:48:55;;;;;;;;;;;;;;;-6.19;100.00;96230.06;5065742;28;19942;-75
2023/12/04 05:51:22;;;;;;;;;;;;;;;-6.25;100.00;96227.19;5047538;28;19960;-74
2023/12/04 05:53:48;;;;;;;;;;;;;;;-6.28;100.00;96229.97;5065279;28;19935;-74
2023/12/04 05:56:13;;;;;;;;;;;;;;;-6.31;100.00;96230.22;5063911;28;19948;-75
2023/12/04 05:58:39;;;;;;;;;;;;;;;-6.32;100.00;96229.38;5065519;28;19949;-75
2023/12/04 06:01:06;;;;;;;;;;;;;;;-6.34;100.00;96219.31;5064969;28;20240;-75
2023/12/04 06:03:32;;;;;;;;;;;;;;;-6.35;100.00;96227.88;5065395;28;19946;-74
2023/12/04 06:05:58;;;;;;;;;;;;;;;-6.38;100.00;96209.47;5065303;28;19942;-75
2023/12/04 06:08:24;;;;;;;;;;;;;;;-6.39;100.00;96213.75;5065067;28;19979;-75
2023/12/04 06:10:50;;;;;;;;;;;;;;;-6.37;100.00;96209.34;5065594;28;20024;-75
2023/12/04 06:13:15;;;;;;;;;;;;;;;-6.37;100.00;96214.44;5065321;28;19945;-75
2023/12/04 06:15:42;;;;;;;;;;;;;;;-6.37;100.00;96214.44;5064905;28;19943;-75
2023/12/04 06:18:08;;;;;;;;;;;;;;;-6.36;100.00;96216.06;5047131;28;20227;-75
2023/12/04 06:20:34;;;;;;;;;;;;;;;-6.31;100.00;96210.59;5064740;28;19942;-75
2023/12/04 06:23:00;;;;;;;;;;;;;;;-6.29;100.00;96208.75;5046730;28;19953;-75
2023/12/04 06:25:26;;;;;;;;;;;;;;;-6.25;100.00;96204.22;5030950;28;20003;-75
2023/12/04 06:27:52;;;;;;;;;;;;;;;-6.24;100.00;96198.97;5064484;28;19971;-74
2023/12/04 06:30:18;;;;;;;;;;;;;;;-6.20;100.00;96194.47;5046743;28;19959;-74
2023/12/04 06:32:44;;;;;;;;;;;;;;;-6.17;100.00;96195.03;5064404;28;19967;-75
2023/12/04 06:35:10;;;;;;;;;;;;;;;-6.13;100.00;96187.97;5065068;28;19994;-75
2023/12/04 06:37:38;;;;;;;;;;;;;;;-6.08;100.00;96187.59;5064787;28;19961;-75
2023/12/04 06:40:06;;;;;;;;;;;;;;;-6.04;100.00;96179.56;5064706;28;20103;-76
2023/12/04 06:42:32;;;;;;;;;;;;;;;-6.01;100.00;96170.84;5064462;28;19965;-75
2023/12/04 06:44:58;;;;;;;;;;;;;;;-5.97;100.00;96173.03;5046211;28;19953;-75
2023/12/04 06:47:23;;;;;;;;;;;;;;;-5.94;100.00;96164.31;5063741;28;20285;-74
2023/12/04 06:49:49;;;;;;;;;;;;;;;-5.91;100.00;96164.03;5064374;28;19995;-75
2023/12/04 06:52:15;;;;;;;;;;;;;;;-5.85;100.00;96165.31;5046143;28;20025;-75
2023/12/04 06:54:41;;;;;;;;;;;;;;;-5.84;100.00;96160.06;5064579;28;19938;-75
2023/12/04 06:57:07;;;;;;;;;;;;;;;-5.82;100.00;96160.75;5064474;28;19936;-76
2023/12/04 06:59:33;;;;;;;;;;;;;;;-5.78;100.00;96166.41;5063568;28;19946;-75
2023/12/04 07:01:59;;;;;;;;;;;;;;;-5.75;100.00;96166.19;5064410;28;19936;-75
2023/12/04 07:04:25;;;;;;;;;;;;;;;-5.73;100.00;96167.69;5064570;28;20219;-75
2023/12/04 07:06:51;;;;;;;;;;;;;;;-5.71;100.00;96168.38;5046727;28;19946;-75
2023/12/04 07:09:17;;;;;;;;;;;;;;;-5.73;100.00;96156.66;5064069;28;19942;-75
2023/12/04 07:11:43;;;;;;;;;;;;;;;-5.73;100.00;96160.03;5064453;28;20135;-75
2023/12/04 07:14:09;;;;;;;;;;;;;;;-5.70;100.00;96153.84;5064278;28;19941;-75
2023/12/04 07:16:39;;;;;;;;;;;;;;;-5.68;100.00;96159.66;5064074;28;19972;-75
2023/12/04 07:19:04;;;;;;;;;;;;;;;-5.65;100.00;96150.91;5063959;28;19943;-76
2023/12/04 07:21:31;;;;;;;;;;;;;;;-5.63;100.00;96157.50;5063964;28;19937;-75
2023/12/04 07:23:57;;;;;;;;;;;;;;;-5.64;100.00;96145.69;5046195;28;19939;-75
2023/12/04 07:26:23;;;;;;;;;;;;;;;-5.61;100.00;96144.63;5064107;28;19945;-75
2023/12/04 07:28:49;;;;;;;;;;;;;;;-5.57;100.00;96133.22;5042428;28;20084;-75
2023/12/04 07:31:15;;;;;;;;;;;;;;;-5.56;100.00;96142.53;5043161;28;19964;-74
2023/12/04 07:33:40;;;;;;;;;;;;;;;-5.53;100.00;96145.63;5043748;28;19985;-75
2023/12/04 07:36:07;;;;;;;;;;;;;;;-5.52;100.00;96149.81;5044401;28;19938;-75
2023/12/04 07:38:32;;;;;;;;;;;;;;;-5.51;100.00;96163.38;5043602;28;19946;-74
2023/12/04 07:40:58;;;;;;;;;;;;;;;-5.56;100.00;96143.31;5045251;28;19932;-74
2023/12/04 07:43:24;;;;;;;;;;;;;;;-5.54;100.00;96141.44;5048435;28;20225;-74
2023/12/04 07:45:50;;;;;;;;;;;;;;;-5.51;100.00;96143.75;5047794;28;19931;-74
2023/12/04 07:48:16;;;;;;;;;;;;;;;-5.49;100.00;96147.94;5048057;28;19949;-74
2023/12/04 07:50:42;;;;;;;;;;;;;;;-5.45;100.00;96145.00;5048161;28;19962;-74
2023/12/04 07:53:09;;;;;;;;;;;;;;;-5.42;100.00;96147.28;5046575;28;19949;-75
2023/12/04 07:55:35;;;;;;;;;;;;;;;-5.35;100.00;96165.50;5047953;28;19943;-74
2023/12/04 07:58:01;;;;;;;;;;;;;;;-5.34;100.00;96157.69;5047658;28;19984;-74
2023/12/04 08:00:27;;;;;;;;;;;;;;;-5.39;100.00;96166.69;5047539;28;19935;-74
2023/12/04 08:02:53;;;;;;;;;;;;;;;-5.46;100.00;96152.78;5048001;28;19962;-74
2023/12/04 08:05:19;;;;;;;;;;;;;;;-5.45;100.00;96151.84;5047422;28;19939;-74
2023/12/04 08:07:45;;;;;;;;;;;;;;;-5.43;100.00;96144.88;5047452;28;19944;-74
2023/12/04 08:10:11;;;;;;;;;;;;;;;-5.42;100.00;96134.50;5046180;28;20083;-74
2023/12/04 08:12:36;;;;;;;;;;;;;;;-5.47;100.00;96123.06;5047989;28;19953;-74
2023/12/04 08:15:03;;;;;;;;;;;;;;;-5.55;100.00;96121.94;5046072;28;20017;-74
2023/12/04 08:17:31;;;;;;;;;;;;;;;-5.57;100.00;96131.47;5046052;28;20240;-74
2023/12/04 08:19:57;;;;;;;;;;;;;;;-5.59;100.00;96123.13;5045875;28;19989;-74
2023/12/04 08:22:23;;;;;;;;;;;;;;;-5.59;100.00;96128.22;5047126;28;20006;-73
2023/12/04 08:24:49;;;;;;;;;;;;;;;-5.51;100.00;96130.97;5046995;28;19951;-74
2023/12/04 08:27:15;;;;;;;;;;;;;;;-5.41;100.00;96137.91;5052999;28;19964;-74
2023/12/04 08:29:40;;;;;;;;;;;;;;;-5.32;100.00;96129.47;5049157;28;19994;-74
2023/12/04 08:32:06;;;;;;;;;;;;;;;-5.23;100.00;96128.69;5067398;28;19950;-74
2023/12/04 08:34:32;;;;;;;;;;;;;;;-5.16;100.00;96134.91;5048960;28;20066;-74
2023/12/04 08:36:58;;;;;;;;;;;;;;;-5.07;100.00;96135.91;5066690;28;19934;-73
2023/12/04 08:39:24;;;;;;;;;;;;;;;-5.00;100.00;96123.41;5066648;28;19943;-74
2023/12/04 08:41:50;;;;;;;;;;;;;;;-4.95;100.00;96122.09;5048630;28;19936;-74
2023/12/04 08:44:16;;;;;;;;;;;;;;;-4.93;100.00;96127.06;5048498;28;19969;-74
2023/12/04 08:46:43;;;;;;;;;;;;;;;-4.90;100.00;96122.50;5067202;28;20219;-73
2023/12/04 08:49:09;;;;;;;;;;;;;;;-4.83;100.00;96120.25;5066452;28;20076;-75
2023/12/04 08:51:35;;;;;;;;;;;;;;;-4.79;100.00;96120.78;5047934;28;19961;-74
2023/12/04 08:54:01;;;;;;;;;;;;;;;-4.74;100.00;96114.34;5066369;28;20077;-74
2023/12/04 08:56:27;;;;;;;;;;;;;;;-4.73;100.00;96110.81;5066281;28;19936;-74
2023/12/04 08:58:52;;;;;;;;;;;;;;;-4.73;100.00;96115.94;5066296;28;20011;-74
2023/12/04 09:01:18;;;;;;;;;;;;;;;-4.67;100.00;96109.50;5066158;28;20211;-74
2023/12/04 09:03:44;;;;;;;;;;;;;;;-4.61;100.00;96121.78;5048434;28;19950;-74
2023/12/04 09:06:10;;;;;;;;;;;;;;;-4.56;100.00;96129.84;5066218;28;19942;-75
2023/12/04 09:08:36;;;;;;;;;;;;;;;-4.50;100.00;96126.75;5066240;28;19940;-74
2023/12/04 09:11:03;;;;;;;;;;;;;;;-4.45;100.00;96128.94;5031751;28;20034;-74
2023/12/04 09:13:30;;;;;;;;;;;;;;;-4.41;100.00;96135.41;5066086;28;19936;-74
2023/12/04 09:15:56;;;;;;;;;;;;;;;-4.38;100.00;96135.16;5048424;28;19935;-74
2023/12/04 09:18:25;;;;;;;;;;;;;;;-4.36;100.00;96129.91;5066435;28;19939;-74
2023/12/04 09:20:51;;;;;;;;;;;;;;;-4.36;100.00;96133.25;5066080;28;19939;-74
2023/12/04 09:23:17;;;;;;;;;;;;;;;-4.38;100.00;96127.47;5065277;28;19978;-74
2023/12/04 09:25:42;;;;;;;;;;;;;;;-4.39;100.00;96136.09;5048607;28;19949;-74
2023/12/04 09:28:08;;;;;;;;;;;;;;;-4.42;100.00;96130.44;5047667;28;19982;-75
2023/12/04 09:30:37;;;;;;;;;;;;;;;-4.40;100.00;96126.78;5048007;28;19939;-74
2023/12/04 09:33:02;;;;;;;;;;;;;;;-4.37;100.00;96166.66;5047917;28;19944;-74
2023/12/04 09:35:28;;;;;;;;;;;;;;;-4.33;100.00;96138.09;5065581;28;19944;-74
2023/12/04 09:37:54;;;;;;;;;;;;;;;-4.29;100.00;96172.72;5031339;28;19940;-74
2023/12/04 09:40:20;;;;;;;;;;;;;;;-4.23;100.00;96157.81;5066098;28;19949;-74
2023/12/04 09:42:46;;;;;;;;;;;;;;;-4.20;100.00;96152.41;5047781;28;19941;-74
2023/12/04 09:45:12;;;;;;;;;;;;;;;-4.18;100.00;96147.97;5047649;28;19972;-74
2023/12/04 09:47:38;;;;;;;;;;;;;;;-4.16;100.00;96149.47;5066266;28;19944;-74
2023/12/04 09:50:05;;;;;;;;;;;;;;;-4.04;100.00;96162.94;5065356;28;19946;-74
2023/12/04 09:52:31;;;;;;;;;;;;;;;-3.93;100.00;96155.09;5030895;28;19958;-74
2023/12/04 09:54:57;;;;;;;;;;;;;;;-3.80;100.00;96148.91;5065525;28;19974;-74
2023/12/04 09:57:24;;;;;;;;;;;;;;;-3.68;100.00;96170.88;5048048;28;19947;-74
2023/12/04 09:59:50;;;;;;;;;;;;;;;-3.67;100.00;96157.94;5065490;28;20248;-74
2023/12/04 10:02:17;;;;;;;;;;;;;;;-3.68;100.00;96166.56;5065624;28;20025;-74
2023/12/04 10:04:42;;;;;;;;;;;;;;;-3.68;100.00;96160.63;5064628;28;19941;-74
2023/12/04 10:07:08;;;;;;;;;;;;;;;-3.66;100.00;96156.19;5065275;28;19941;-74
2023/12/04 10:09:34;;;;;;;;;;;;;;;-3.69;100.00;96129.09;5047793;28;19950;-74
2023/12/04 10:12:00;;;;;;;;;;;;;;;-3.67;100.00;96126.38;5047689;28;19962;-75
2023/12/04 10:14:26;;;;;;;;;;;;;;;-3.63;100.00;96124.34;5047847;28;19945;-75
2023/12/04 10:16:55;;;;;;;;;;;;;;;-3.52;100.00;96121.66;5030802;28;19939;-75
2023/12/04 10:19:27;;;;;;;;;;;;;;;-3.39;100.00;96109.31;5065423;28;19943;-75
2023/12/04 10:22:01;;;;;;;;;;;;;;;-2.95;100.00;96098.50;5065364;28;19964;-75
2023/12/04 10:24:26;;;;;;;;;;;;;;;-2.72;100.00;96078.41;5064154;28;19940;-76
2023/12/04 10:26:52;;;;;;;;;;;;;;;-2.76;100.00;96062.47;5046676;28;20284;-76
2023/12/04 10:29:18;;;;;;;;;;;;;;;-2.75;100.00;96065.84;5065133;28;19951;-75
2023/12/04 10:31:44;;;;;;;;;;;;;;;-2.76;100.00;96065.03;5064917;28;20016;-75
2023/12/04 10:34:10;;;;;;;;;;;;;;;-2.79;100.00;96062.78;5046826;28;19948;-76
2023/12/04 10:36:39;;;;;;;;;;;;;;;-2.77;100.00;96055.75;5065002;28;19942;-75
2023/12/04 10:39:04;;;;;;;;;;;;;;;-2.61;100.00;96057.66;5047495;28;20199;-80
2023/12/04 10:41:31;;;;;;;;;;;;;;;-2.14;100.00;96036.06;5064815;28;19944;-76
2023/12/04 10:43:57;;;;;;;;;;;;;;;-1.99;100.00;96000.41;5064172;28;19974;-77
2023/12/04 10:46:27;;;;;;;;;;;;;;;-1.98;100.00;95982.25;5064708;28;19952;-76
2023/12/04 10:48:53;;;;;;;;;;;;;;;-1.94;100.00;95988.69;5064483;28;19949;-76
2023/12/04 10:51:19;;;;;;;;;;;;;;;-1.93;100.00;96002.34;5064048;28;19952;-77
2023/12/04 10:53:45;;;;;;;;;;;;;;;-1.93;100.00;96008.31;5029839;28;19951;-76
2023/12/04 10:56:15;;;;;;;;;;;;;;;-1.91;100.00;96032.09;5063432;28;19969;-76
2023/12/04 10:58:41;;;;;;;;;;;;;;;-2.04;100.00;96003.41;5030592;28;19951;-76
2023/12/04 11:01:08;;;;;;;;;;;;;;;-2.15;100.00;96025.00;5064033;28;19933;-76
2023/12/04 11:03:37;;;;;;;;;;;;;;;-2.32;100.00;95985.53;5046816;28;19939;-76
2023/12/04 11:06:06;;;;;;;;;;;;;;;-2.41;100.00;96001.84;5046670;28;19953;-75
2023/12/04 11:08:36;;;;;;;;;;;;;;;-2.43;100.00;95996.06;5046733;28;20225;-75
2023/12/04 11:11:03;;;;;;;;;;;;;;;-2.41;100.00;96001.06;5064536;28;20123;-76
2023/12/04 11:13:34;;;;;;;;;;;;;;;-2.29;100.00;95994.69;5030197;28;20118;-76
2023/12/04 11:16:09;;;;;;;;;;;;;;;-2.06;100.00;95956.50;5045809;28;19936;-76
2023/12/04 11:18:37;;;;;;;;;;;;;;;-2.07;100.00;95955.69;5046560;28;19967;-76
2023/12/04 11:21:06;;;;;;;;;;;;;;;-2.06;100.00;95952.19;5045936;28;19937;-76
2023/12/04 11:23:32;;;;;;;;;;;;;;;-2.05;100.00;95947.84;5046498;28;19938;-76
2023/12/04 11:25:58;;;;;;;;;;;;;;;-2.08;100.00;95933.53;5046168;28;19944;-77
2023/12/04 11:28:25;;;;;;;;;;;;;;;-2.13;100.00;95933.19;5063314;28;19967;-76
2023/12/04 11:30:51;;;;;;;;;;;;;;;-2.13;100.00;95922.91;5029638;28;19967;-76
2023/12/04 11:33:18;;;;;;;;;;;;;;;-2.06;100.00;95917.97;5046037;28;20143;-78
2023/12/04 11:35:44;;;;;;;;;;;;;;;-1.99;100.00;95925.88;5063593;28;19949;-76
2023/12/04 11:38:12;;;;;;;;;;;;;;;-1.97;100.00;95901.66;5029826;28;20254;-77
2023/12/04 11:40:42;;;;;;;;;;;;;;;-1.94;100.00;95896.19;5046051;28;19943;-76
2023/12/04 11:43:27;;;;;;;;;;;;;;;-1.91;100.00;95892.50;5063850;28;20215;-76
2023/12/04 11:46:08;;;;;;;;;;;;;;;-1.87;100.00;95901.50;5062636;28;20271;-76
2023/12/04 11:48:34;;;;;;;;;;;;;;;-1.80;100.00;95881.97;5063812;28;19946;-76
2023/12/04 11:51:00;;;;;;;;;;;;;;;-1.75;100.00;95886.63;5063783;28;19937;-77
2023/12/04 11:53:27;;;;;;;;;;;;;;;-1.72;100.00;95887.16;5045928;28;19969;-76
2023/12/04 11:55:56;;;;;;;;;;;;;;;-1.69;100.00;95891.97;5045410;28;19965;-76
2023/12/04 11:58:22;;;;;;;;;;;;;;;-1.50;100.00;95913.25;5063993;28;19941;-77
2023/12/04 12:00:48;;;;;;;;;;;;;;;-1.07;100.00;95908.84;5045975;28;20260;-76
2023/12/04 12:03:14;;;;;;;;;;;;;;;-0.30;100.00;95899.03;5046161;28;19942;-76
2023/12/04 12:05:41;;;;;;;;;;;;;;;-0.12;100.00;95880.81;5028890;28;19944;-76
2023/12/04 12:08:07;;;;;;;;;;;;;;;-0.20;100.00;95878.25;5063380;28;19937;-76
2023/12/04 12:10:33;;;;;;;;;;;;;;;-0.31;100.00;95863.94;5063180;28;19940;-76
2023/12/04 12:13:00;;;;;;;;;;;;;;;-0.44;100.00;95851.56;5063396;28;20126;-76
2023/12/04 12:15:25;;;;;;;;;;;;;;;-0.62;100.00;95867.19;5063678;28;19946;-76
2023/12/04 12:17:51;;;;;;;;;;;;;;;-0.87;100.00;95868.97;5045741;28;20215;-76
2023/12/04 12:20:17;;;;;;;;;;;;;;;-1.04;100.00;95880.22;5045626;28;19946;-75
2023/12/04 12:22:43;;;;;;;;;;;;;;;-1.18;100.00;95879.06;5029288;28;20013;-76
2023/12/04 12:25:10;;;;;;;;;;;;;;;-1.36;100.00;95876.63;5062887;28;19952;-76
2023/12/04 12:27:36;;;;;;;;;;;;;;;-1.56;100.00;95883.81;5065210;28;19974;-75
2023/12/04 12:30:03;;;;;;;;;;;;;;;-1.63;100.00;95872.53;5067300;28;19965;-76